Time;durP1;ratioP1;P1;durP2;ratioP2;P2;SDS_P1;SDS_P2;PMS_P1;PMS_P2;Temp;Humidity;BMP_temperature;BMP_pressure;BME280_temperature;BME280_humidity;BME280_pressure;Samples;Min_cycle;Max_cycle;Signal;HPM_P1;HPM_P2
2023/10/06 06:08:39;;;;;;;;;;;;;;;13.97;65.51;100380.45;109880;1278;22569;-47
2023/10/06 06:20:21;;;;;;;;;;;;;;;14.20;64.96;100375.59;110025;1273;22484;-47
2023/10/06 06:41:43;;;;;;;;;;;;;;;14.64;64.66;100371.81;109769;1260;22625;-48
2023/10/06 06:45:06;;;;;;;;;;;;;;;14.71;64.45;100368.72;109680;1273;23151;-49
2023/10/06 06:48:53;;;;;;;;;;;;;;;14.74;64.42;100369.57;109702;1273;22469;-55
2023/10/06 06:59:20;;;;;;;;;;;;;;;14.87;63.85;100370.21;109868;1269;22453;-55
2023/10/06 07:01:53;;;;;;;;;;;;;;;14.84;64.09;100375.02;109856;1272;22923;-55
2023/10/06 07:05:23;;;;;;;;;;;;;;;14.87;64.21;100373.90;109598;1272;22720;-55
2023/10/06 07:16:09;;;;;;;;;;;;;;;14.91;64.34;100366.63;109393;1274;23342;-53
2023/10/06 07:19:00;;;;;;;;;;;;;;;15.04;63.70;100366.41;109575;1274;22926;-57
2023/10/06 07:21:36;;;;;;;;;;;;;;;15.16;63.23;100365.16;109358;1272;435346;-48
2023/10/06 07:24:04;;;;;;;;;;;;;;;15.20;62.63;100365.45;109811;1270;22624;-55
2023/10/06 07:26:32;;;;;;;;;;;;;;;15.20;62.05;100363.52;109974;1275;22552;-47
2023/10/06 07:29:00;;;;;;;;;;;;;;;15.17;61.82;100370.74;109739;1273;22969;-55
2023/10/06 07:31:26;;;;;;;;;;;;;;;15.17;61.75;100366.34;109784;1258;22570;-48
2023/10/06 07:33:54;;;;;;;;;;;;;;;15.25;61.83;100358.84;109962;1270;22486;-55
2023/10/06 07:36:22;;;;;;;;;;;;;;;15.36;61.36;100358.29;109895;1267;23446;-59
2023/10/06 07:38:52;;;;;;;;;;;;;;;15.46;61.40;100356.00;109403;1272;22546;-48
2023/10/06 07:56:58;;;;;;;;;;;;;;;15.85;57.90;100356.83;109606;1272;23405;-47
2023/10/06 08:08:33;;;;;;;;;;;;;;;15.66;58.29;100352.14;109871;1272;22471;-55
2023/10/06 08:11:25;;;;;;;;;;;;;;;15.70;58.09;100350.45;109922;1270;22480;-55
2023/10/06 08:13:54;;;;;;;;;;;;;;;15.72;57.70;100350.60;109999;1272;22818;-56
2023/10/06 08:16:21;;;;;;;;;;;;;;;15.72;57.50;100351.13;109965;1268;22898;-57
2023/10/06 08:18:48;;;;;;;;;;;;;;;15.67;58.11;100352.09;110057;1267;22963;-49
2023/10/06 08:21:15;;;;;;;;;;;;;;;15.65;57.94;100347.56;109779;1267;22586;-49
2023/10/06 08:23:41;;;;;;;;;;;;;;;15.71;57.29;100350.09;109941;1272;23044;-49
2023/10/06 08:26:13;;;;;;;;;;;;;;;15.84;56.65;100348.77;109791;1270;23359;-50
2023/10/06 08:28:40;;;;;;;;;;;;;;;16.04;56.38;100343.58;109982;1260;23267;-50
2023/10/06 08:31:17;;;;;;;;;;;;;;;16.21;55.70;100347.98;109821;1270;22685;-55
2023/10/06 08:33:45;;;;;;;;;;;;;;;16.36;55.41;100345.52;109723;1273;22474;-49
2023/10/06 08:36:12;;;;;;;;;;;;;;;16.54;54.29;100348.80;109969;1267;23262;-54
2023/10/06 08:38:39;;;;;;;;;;;;;;;16.61;53.47;100350.56;109927;1267;22486;-49
2023/10/06 08:41:07;;;;;;;;;;;;;;;16.67;53.71;100343.20;109774;1264;23618;-56
2023/10/06 08:43:36;;;;;;;;;;;;;;;16.78;52.83;100343.84;109723;1276;23165;-55
2023/10/06 08:46:04;;;;;;;;;;;;;;;16.83;52.55;100343.54;109728;1272;22470;-56
2023/10/06 08:48:33;;;;;;;;;;;;;;;16.93;52.60;100350.17;109628;1268;22459;-56
2023/10/06 08:51:07;;;;;;;;;;;;;;;17.05;51.79;100353.75;109561;1278;22477;-50
2023/10/06 08:53:41;;;;;;;;;;;;;;;17.15;50.97;100361.95;109494;1272;22525;-49
2023/10/06 08:56:07;;;;;;;;;;;;;;;17.27;50.58;100352.98;109848;1272;23713;-49
2023/10/06 08:58:38;;;;;;;;;;;;;;;17.29;49.83;100352.92;109854;1272;23358;-49
2023/10/06 09:01:14;;;;;;;;;;;;;;;17.24;49.92;100354.13;109518;1271;23167;-49
2023/10/06 09:03:41;;;;;;;;;;;;;;;17.11;49.87;100356.05;109628;1273;25285;-49
2023/10/06 09:06:11;;;;;;;;;;;;;;;16.95;50.32;100355.05;109896;1272;22451;-56
2023/10/06 09:08:40;;;;;;;;;;;;;;;16.90;50.92;100358.17;109904;1272;22571;-54
2023/10/06 09:11:07;;;;;;;;;;;;;;;16.95;50.84;100363.16;109969;1272;22418;-48
2023/10/06 09:13:34;;;;;;;;;;;;;;;16.96;50.88;100353.95;109911;1264;23391;-55
2023/10/06 09:16:09;;;;;;;;;;;;;;;16.98;50.09;100353.03;109953;1272;22543;-49
2023/10/06 09:18:39;;;;;;;;;;;;;;;17.01;49.07;100359.47;109855;1273;22556;-55
2023/10/06 09:21:21;;;;;;;;;;;;;;;16.99;49.08;100360.07;109836;1271;22974;-55
2023/10/06 09:23:52;;;;;;;;;;;;;;;16.98;49.64;100363.77;109767;1275;22518;-49
2023/10/06 09:26:29;;;;;;;;;;;;;;;17.01;48.96;100366.34;109831;1273;22529;-50
2023/10/06 09:29:01;;;;;;;;;;;;;;;16.92;49.04;100369.56;109901;1272;22586;-49
2023/10/06 09:31:35;;;;;;;;;;;;;;;16.81;48.93;100367.89;109947;1272;22535;-56
2023/10/06 09:34:04;;;;;;;;;;;;;;;16.79;49.47;100370.95;109790;1266;22523;-57
2023/10/06 09:36:34;;;;;;;;;;;;;;;16.81;49.55;100366.50;109820;1274;23505;-50
2023/10/06 09:39:14;;;;;;;;;;;;;;;16.83;49.00;100373.69;109916;1278;22590;-55
2023/10/06 09:41:41;;;;;;;;;;;;;;;16.75;48.84;100367.70;109964;1269;22467;-54
2023/10/06 09:44:09;;;;;;;;;;;;;;;16.66;47.67;100367.70;109985;1273;22498;-49
2023/10/06 09:46:36;;;;;;;;;;;;;;;16.63;48.17;100368.83;109895;1265;23196;-49
2023/10/06 09:49:05;;;;;;;;;;;;;;;16.61;47.90;100365.89;110010;1272;22399;-49
2023/10/06 09:51:32;;;;;;;;;;;;;;;16.59;48.50;100370.00;110051;1273;22509;-49
2023/10/06 09:53:59;;;;;;;;;;;;;;;16.57;49.12;100361.94;109789;1259;22906;-49
2023/10/06 09:56:27;;;;;;;;;;;;;;;16.59;49.59;100364.17;109937;1273;22495;-48
2023/10/06 09:58:54;;;;;;;;;;;;;;;16.78;49.19;100356.69;110074;1275;22907;-48
2023/10/06 10:01:24;;;;;;;;;;;;;;;17.09;48.38;100350.98;109966;1277;22482;-55
2023/10/06 10:03:54;;;;;;;;;;;;;;;17.49;47.06;100352.58;109765;1278;23269;-51
2023/10/06 10:06:23;;;;;;;;;;;;;;;17.72;46.64;100338.37;109759;1270;22405;-51
2023/10/06 10:08:54;;;;;;;;;;;;;;;17.94;45.61;100350.26;109776;1270;23044;-47
2023/10/06 10:11:39;;;;;;;;;;;;;;;18.22;44.46;100346.25;110006;1272;22454;-47
2023/10/06 10:14:21;;;;;;;;;;;;;;;18.55;43.63;100344.86;109893;1275;22447;-47
2023/10/06 10:16:53;;;;;;;;;;;;;;;18.90;42.71;100344.27;109785;1275;22495;-52
2023/10/06 10:19:22;;;;;;;;;;;;;;;19.14;42.70;100339.20;109876;1272;22564;-51
2023/10/06 10:21:48;;;;;;;;;;;;;;;19.36;41.79;100343.20;109796;1275;22455;-46
2023/10/06 10:24:21;;;;;;;;;;;;;;;19.60;40.85;100348.77;110032;1273;22509;-50
2023/10/06 10:26:51;;;;;;;;;;;;;;;19.74;40.29;100343.14;110054;1278;23152;-52
2023/10/06 10:29:18;;;;;;;;;;;;;;;19.92;40.05;100345.09;109737;1274;23365;-52
2023/10/06 10:31:46;;;;;;;;;;;;;;;20.23;39.31;100349.56;110014;1275;22470;-52
2023/10/06 10:34:33;;;;;;;;;;;;;;;20.55;39.05;100342.87;110003;1265;22495;-51
2023/10/06 10:37:04;;;;;;;;;;;;;;;20.58;38.50;100345.94;109865;1273;22467;-47
2023/10/06 10:39:51;;;;;;;;;;;;;;;20.33;38.90;100342.65;109849;1278;23149;-51
2023/10/06 10:42:21;;;;;;;;;;;;;;;19.92;39.13;100350.21;109801;1270;22887;-52
2023/10/06 10:44:48;;;;;;;;;;;;;;;19.45;39.82;100345.72;109993;1272;22898;-52
2023/10/06 10:47:16;;;;;;;;;;;;;;;19.33;40.77;100344.57;110043;1259;23201;-47
2023/10/06 10:49:44;;;;;;;;;;;;;;;19.63;40.64;100343.86;110063;1268;22559;-48
2023/10/06 10:52:11;;;;;;;;;;;;;;;19.99;39.49;100343.08;109948;1265;22533;-51
2023/10/06 10:54:42;;;;;;;;;;;;;;;20.22;38.71;100344.48;109990;1275;23014;-50
2023/10/06 10:57:10;;;;;;;;;;;;;;;20.45;38.69;100341.83;110004;1271;23286;-50
2023/10/06 11:00:12;;;;;;;;;;;;;;;20.58;37.98;100338.30;110035;1272;22448;-50
2023/10/06 11:02:40;;;;;;;;;;;;;;;20.62;37.66;100341.30;109976;1275;22533;-47
2023/10/06 11:05:07;;;;;;;;;;;;;;;20.60;37.27;100343.00;110001;1267;22463;-47
2023/10/06 11:07:36;;;;;;;;;;;;;;;20.54;37.36;100340.93;109928;1272;22500;-51
2023/10/06 11:10:03;;;;;;;;;;;;;;;20.49;37.05;100340.63;110085;1265;22440;-48
2023/10/06 11:12:30;;;;;;;;;;;;;;;20.27;36.99;100339.31;109911;1272;22844;-50
2023/10/06 11:15:13;;;;;;;;;;;;;;;19.94;37.45;100341.85;109569;1275;23362;-47
2023/10/06 11:17:49;;;;;;;;;;;;;;;19.57;38.24;100336.46;109910;1278;22993;-51
2023/10/06 11:20:21;;;;;;;;;;;;;;;19.33;38.58;100341.55;109977;1268;22539;-51
2023/10/06 11:22:55;;;;;;;;;;;;;;;19.15;39.14;100346.27;110013;1267;22516;-47
2023/10/06 11:25:28;;;;;;;;;;;;;;;19.02;39.16;100340.49;109718;1272;23053;-49
2023/10/06 11:27:56;;;;;;;;;;;;;;;18.84;39.34;100344.48;110054;1259;22488;-51
2023/10/06 11:30:25;;;;;;;;;;;;;;;18.71;39.68;100347.91;110023;1278;22419;-47
2023/10/06 11:32:51;;;;;;;;;;;;;;;18.61;39.66;100338.13;110024;1266;23048;-51
2023/10/06 11:35:19;;;;;;;;;;;;;;;18.55;39.53;100341.88;109781;1279;22430;-50
2023/10/06 11:37:46;;;;;;;;;;;;;;;18.45;39.59;100339.89;109879;1278;22501;-48
2023/10/06 11:40:13;;;;;;;;;;;;;;;18.32;40.24;100342.58;109785;1262;22525;-51
2023/10/06 11:42:41;;;;;;;;;;;;;;;18.23;40.55;100342.84;109742;1279;22465;-47
2023/10/06 11:45:23;;;;;;;;;;;;;;;18.18;40.30;100343.71;110026;1261;22988;-51
2023/10/06 11:47:52;;;;;;;;;;;;;;;18.11;40.00;100342.87;110054;1262;22973;-47
2023/10/06 11:50:20;;;;;;;;;;;;;;;17.99;40.06;100352.56;110074;1278;22447;-48
2023/10/06 11:52:48;;;;;;;;;;;;;;;17.82;39.45;100350.61;110083;1278;22424;-51
2023/10/06 11:55:22;;;;;;;;;;;;;;;17.71;39.57;100348.27;110096;1274;22484;-47
2023/10/06 11:57:51;;;;;;;;;;;;;;;17.77;39.48;100346.52;110105;1278;22471;-47
2023/10/06 12:00:19;;;;;;;;;;;;;;;17.93;39.92;100348.88;110120;1267;24598;-47
2023/10/06 12:02:53;;;;;;;;;;;;;;;18.09;40.15;100356.36;110196;1266;22472;-47
2023/10/06 12:05:22;;;;;;;;;;;;;;;18.16;39.73;100362.15;110099;1272;22480;-48
2023/10/06 12:07:51;;;;;;;;;;;;;;;18.16;39.73;100358.09;110083;1259;22481;-51
2023/10/06 12:10:19;;;;;;;;;;;;;;;18.24;39.13;100356.96;109990;1265;22586;-50
2023/10/06 12:12:46;;;;;;;;;;;;;;;18.35;38.75;100355.55;110013;1261;22485;-50
2023/10/06 12:15:16;;;;;;;;;;;;;;;18.38;38.44;100354.59;110017;1266;22800;-46
2023/10/06 12:17:43;;;;;;;;;;;;;;;18.32;38.36;100351.60;110016;1267;22546;-46
2023/10/06 12:20:13;;;;;;;;;;;;;;;18.24;37.97;100356.07;110076;1278;23285;-46
2023/10/06 12:22:40;;;;;;;;;;;;;;;18.12;37.57;100357.49;110157;1273;22446;-46
2023/10/06 12:25:08;;;;;;;;;;;;;;;17.95;38.02;100357.48;110132;1271;23376;-50
2023/10/06 12:27:37;;;;;;;;;;;;;;;17.80;38.37;100357.54;110136;1278;23676;-50
2023/10/06 12:30:06;;;;;;;;;;;;;;;17.65;37.44;100356.70;110124;1278;22490;-50
2023/10/06 12:32:34;;;;;;;;;;;;;;;17.46;36.56;100361.98;110100;1278;22632;-51
2023/10/06 12:35:05;;;;;;;;;;;;;;;17.30;36.23;100360.83;110003;1267;22468;-48
2023/10/06 12:37:33;;;;;;;;;;;;;;;17.17;36.83;100370.16;110089;1273;22449;-47
2023/10/06 12:40:00;;;;;;;;;;;;;;;17.13;37.40;100369.93;110145;1267;22487;-47
2023/10/06 12:42:31;;;;;;;;;;;;;;;17.17;37.24;100366.30;110140;1278;22434;-46
2023/10/06 12:45:00;;;;;;;;;;;;;;;17.19;36.95;100366.95;109972;1263;23349;-47
2023/10/06 12:47:28;;;;;;;;;;;;;;;17.21;37.21;100366.71;110003;1278;22658;-48
2023/10/06 12:49:59;;;;;;;;;;;;;;;17.21;37.68;100366.89;110072;1260;23470;-48
2023/10/06 12:52:26;;;;;;;;;;;;;;;17.42;37.14;100371.11;110101;1278;23111;-47
2023/10/06 12:54:53;;;;;;;;;;;;;;;17.68;36.42;100366.33;110186;1266;23133;-51
2023/10/06 12:57:21;;;;;;;;;;;;;;;17.72;35.88;100367.27;110178;1267;22508;-50
2023/10/06 12:59:48;;;;;;;;;;;;;;;17.66;35.65;100368.68;110059;1278;23388;-51
2023/10/06 13:02:24;;;;;;;;;;;;;;;17.70;35.68;100361.88;110048;1268;22544;-50
2023/10/06 13:04:53;;;;;;;;;;;;;;;17.80;35.85;100361.43;109890;1278;22519;-51
2023/10/06 13:07:20;;;;;;;;;;;;;;;17.87;35.53;100365.11;110008;1268;22524;-48
2023/10/06 13:09:49;;;;;;;;;;;;;;;17.90;34.75;100364.69;110124;1267;22544;-51
2023/10/06 13:12:16;;;;;;;;;;;;;;;17.85;34.74;100365.88;109960;1267;22569;-51
2023/10/06 13:14:43;;;;;;;;;;;;;;;17.80;35.08;100362.31;110090;1269;22633;-51
2023/10/06 13:17:10;;;;;;;;;;;;;;;17.78;35.41;100365.02;110125;1272;23272;-50
2023/10/06 13:19:37;;;;;;;;;;;;;;;17.74;35.33;100364.40;110035;1278;22521;-48
2023/10/06 13:22:05;;;;;;;;;;;;;;;17.73;35.54;100363.23;110042;1278;23195;-47
2023/10/06 13:24:34;;;;;;;;;;;;;;;17.79;35.38;100370.61;110037;1267;22523;-47
2023/10/06 13:27:01;;;;;;;;;;;;;;;17.89;35.11;100373.70;110088;1259;22608;-47
2023/10/06 13:29:29;;;;;;;;;;;;;;;17.91;34.49;100369.60;110059;1278;22659;-48
2023/10/06 13:31:56;;;;;;;;;;;;;;;17.89;34.15;100375.11;110075;1278;22494;-46
2023/10/06 13:34:24;;;;;;;;;;;;;;;17.88;34.04;100375.32;110113;1278;23104;-46
2023/10/06 13:36:52;;;;;;;;;;;;;;;17.87;33.40;100380.66;110141;1272;22451;-46
2023/10/06 13:39:24;;;;;;;;;;;;;;;17.82;33.84;100376.19;110148;1278;22534;-45
2023/10/06 13:41:51;;;;;;;;;;;;;;;17.77;34.43;100379.35;110112;1278;22521;-50
2023/10/06 13:44:18;;;;;;;;;;;;;;;17.72;34.80;100382.81;110127;1273;22515;-50
2023/10/06 13:46:45;;;;;;;;;;;;;;;17.66;35.02;100391.25;110037;1262;22518;-51
2023/10/06 13:49:12;;;;;;;;;;;;;;;17.62;35.06;100391.17;110064;1269;22601;-50
2023/10/06 13:51:39;;;;;;;;;;;;;;;17.66;35.03;100392.48;110040;1268;22655;-50
2023/10/06 13:54:06;;;;;;;;;;;;;;;17.76;35.10;100391.71;110034;1278;22502;-46
2023/10/06 13:56:34;;;;;;;;;;;;;;;17.81;34.67;100400.58;110074;1263;23672;-48
2023/10/06 13:59:03;;;;;;;;;;;;;;;17.72;34.21;100395.50;110093;1267;23022;-47
2023/10/06 14:01:33;;;;;;;;;;;;;;;17.67;33.79;100398.43;109997;1266;22560;-47
2023/10/06 14:04:00;;;;;;;;;;;;;;;17.70;33.77;100398.02;110083;1266;22937;-48
2023/10/06 14:06:28;;;;;;;;;;;;;;;17.78;33.21;100399.07;110066;1267;23934;-47
2023/10/06 14:08:55;;;;;;;;;;;;;;;17.96;32.74;100400.50;110106;1278;23327;-46
2023/10/06 14:11:22;;;;;;;;;;;;;;;18.04;32.58;100399.20;110087;1274;23201;-47
2023/10/06 14:13:49;;;;;;;;;;;;;;;18.00;32.83;100404.96;110043;1278;23210;-47
2023/10/06 14:16:26;;;;;;;;;;;;;;;18.08;32.75;100403.16;110057;1278;22522;-47
2023/10/06 14:18:54;;;;;;;;;;;;;;;18.30;32.01;100399.32;110045;1268;22460;-46
2023/10/06 14:21:20;;;;;;;;;;;;;;;18.46;31.53;100403.44;110072;1262;22613;-50
2023/10/06 14:23:49;;;;;;;;;;;;;;;18.39;31.42;100404.34;110028;1269;22549;-50
2023/10/06 14:26:18;;;;;;;;;;;;;;;18.25;31.44;100404.23;110068;1275;22496;-47
2023/10/06 14:28:45;;;;;;;;;;;;;;;18.14;31.44;100401.39;110086;1270;22532;-50
2023/10/06 14:31:31;;;;;;;;;;;;;;;18.02;31.59;100404.54;110076;1269;22587;-47
2023/10/06 14:34:33;;;;;;;;;;;;;;;18.04;31.42;100404.68;109984;1268;22520;-47
2023/10/06 14:36:46;;;;;;;;;;;;;;;18.29;31.17;100406.92;109999;1267;22619;-46
2023/10/06 14:47:31;;;;;;;;;;;;;;;18.77;30.97;100411.46;110036;1278;22538;-47
2023/10/06 14:49:58;;;;;;;;;;;;;;;18.77;31.16;100410.44;110042;1259;22526;-46
2023/10/06 14:52:31;;;;;;;;;;;;;;;18.72;30.93;100412.72;110030;1269;24690;-46
2023/10/06 14:54:58;;;;;;;;;;;;;;;18.54;30.93;100419.94;110044;1278;22516;-50
2023/10/06 14:57:26;;;;;;;;;;;;;;;18.35;30.89;100424.06;110026;1267;23141;-50
2023/10/06 14:59:55;;;;;;;;;;;;;;;18.15;31.28;100427.47;110056;1275;22545;-50
2023/10/06 15:02:22;;;;;;;;;;;;;;;17.97;31.42;100434.34;110087;1268;22580;-47
2023/10/06 15:04:50;;;;;;;;;;;;;;;17.75;31.41;100436.90;110050;1278;23010;-47
2023/10/06 15:07:16;;;;;;;;;;;;;;;17.51;31.94;100440.49;110063;1267;22873;-47
2023/10/06 15:09:44;;;;;;;;;;;;;;;17.31;32.41;100443.66;109845;1279;23006;-47
2023/10/06 15:12:14;;;;;;;;;;;;;;;17.08;32.84;100447.94;110049;1268;23264;-46
2023/10/06 15:14:41;;;;;;;;;;;;;;;16.83;33.36;100452.06;110145;1278;22416;-50
2023/10/06 15:17:10;;;;;;;;;;;;;;;16.58;33.78;100456.99;110147;1266;23332;-47
2023/10/06 15:19:37;;;;;;;;;;;;;;;16.33;34.18;100455.95;110171;1278;22435;-51
2023/10/06 15:22:08;;;;;;;;;;;;;;;16.11;34.65;100458.85;110123;1278;22475;-50
2023/10/06 15:24:36;;;;;;;;;;;;;;;15.90;34.95;100459.09;110132;1278;22397;-51
2023/10/06 15:27:06;;;;;;;;;;;;;;;15.74;35.26;100469.42;110058;1269;22487;-47
2023/10/06 15:29:32;;;;;;;;;;;;;;;15.59;35.60;100469.84;110127;1269;23173;-51
2023/10/06 15:32:00;;;;;;;;;;;;;;;15.46;35.88;100477.27;110121;1278;22489;-47
2023/10/06 15:34:28;;;;;;;;;;;;;;;15.35;36.14;100472.02;110157;1268;22537;-50
2023/10/06 15:36:56;;;;;;;;;;;;;;;15.23;36.33;100473.27;110158;1267;22439;-51
2023/10/06 15:39:23;;;;;;;;;;;;;;;15.11;36.55;100481.70;110162;1278;22448;-46
2023/10/06 15:41:50;;;;;;;;;;;;;;;15.00;36.78;100485.21;110164;1268;22441;-50
2023/10/06 15:44:17;;;;;;;;;;;;;;;14.91;36.94;100484.99;110138;1268;22435;-47
2023/10/06 15:46:44;;;;;;;;;;;;;;;14.83;37.03;100491.80;110060;1267;23210;-47
2023/10/06 15:49:11;;;;;;;;;;;;;;;14.75;37.05;100489.10;110098;1263;22573;-51
2023/10/06 15:51:46;;;;;;;;;;;;;;;14.67;37.18;100492.02;110066;1268;23369;-48
2023/10/06 15:54:12;;;;;;;;;;;;;;;14.59;37.25;100496.52;110077;1269;22504;-51
2023/10/06 15:56:39;;;;;;;;;;;;;;;14.51;37.41;100502.40;110058;1275;23212;-46
2023/10/06 15:59:12;;;;;;;;;;;;;;;14.42;37.66;100508.11;110076;1268;22468;-47
2023/10/06 16:01:39;;;;;;;;;;;;;;;14.32;37.86;100507.34;109936;1268;23269;-50
2023/10/06 16:04:06;;;;;;;;;;;;;;;14.23;37.99;100513.07;110105;1268;22505;-51
2023/10/06 16:06:36;;;;;;;;;;;;;;;14.13;38.15;100516.16;110087;1267;22532;-51
2023/10/06 16:09:07;;;;;;;;;;;;;;;14.04;38.35;100521.52;110081;1278;23193;-51
2023/10/06 16:11:35;;;;;;;;;;;;;;;13.95;38.43;100526.88;110061;1278;22442;-47
